createdAt,value
2022-10-10T00:00:57.005Z,979.11
2022-10-10T00:01:56.970Z,979.11
2022-10-10T00:02:56.843Z,979.11
2022-10-10T00:03:56.758Z,979.10
2022-10-10T00:04:56.680Z,979.07
2022-10-10T00:05:56.597Z,979.09
2022-10-10T00:06:56.517Z,979.09
2022-10-10T00:07:56.436Z,979.05
2022-10-10T00:08:56.355Z,979.04
2022-10-10T00:09:56.272Z,979.03
2022-10-10T00:10:56.192Z,979.00
2022-10-10T00:11:56.108Z,979.02
2022-10-10T00:12:56.029Z,979.04
2022-10-10T00:13:55.950Z,979.01
2022-10-10T00:14:55.865Z,979.04
2022-10-10T00:15:55.789Z,978.98
2022-10-10T00:16:55.703Z,978.99
2022-10-10T00:17:55.626Z,978.98
2022-10-10T00:18:55.543Z,978.99
2022-10-10T00:19:55.459Z,978.99
2022-10-10T00:20:55.386Z,978.99
2022-10-10T00:21:55.305Z,979.01
2022-10-10T00:22:55.216Z,979.00
2022-10-10T00:23:55.137Z,979.01
2022-10-10T00:24:55.060Z,979.03
2022-10-10T00:25:54.975Z,979.00
2022-10-10T00:26:54.904Z,979.00
2022-10-10T00:27:54.816Z,978.99
2022-10-10T00:28:54.735Z,979.01
2022-10-10T00:29:54.651Z,978.99
2022-10-10T00:30:54.568Z,978.95
2022-10-10T00:31:54.489Z,978.97
2022-10-10T00:32:54.407Z,978.96
2022-10-10T00:33:54.326Z,978.92
2022-10-10T00:34:54.246Z,978.90
2022-10-10T00:35:54.161Z,978.93
2022-10-10T00:36:54.089Z,978.92
2022-10-10T00:37:54.006Z,978.90
2022-10-10T00:38:53.922Z,978.86
2022-10-10T00:39:53.837Z,978.93
2022-10-10T00:40:53.754Z,978.86
2022-10-10T00:41:53.679Z,978.86
2022-10-10T00:42:53.922Z,978.81
2022-10-10T00:43:53.519Z,978.87
2022-10-10T00:44:53.433Z,978.89
2022-10-10T00:45:53.351Z,978.86
2022-10-10T00:46:53.267Z,978.88
2022-10-10T00:47:53.190Z,978.89
2022-10-10T00:48:53.108Z,978.93
2022-10-10T00:49:53.029Z,978.92
2022-10-10T00:50:52.943Z,978.88
2022-10-10T00:51:52.864Z,978.89
2022-10-10T00:52:53.037Z,978.85
2022-10-10T00:53:52.701Z,978.88
2022-10-10T00:54:52.618Z,978.87
2022-10-10T00:55:52.542Z,978.85
2022-10-10T00:56:52.455Z,978.81
2022-10-10T00:57:52.379Z,978.81
2022-10-10T00:58:52.292Z,978.82
2022-10-10T00:59:52.216Z,978.80
2022-10-10T01:00:52.177Z,978.81
2022-10-10T01:01:52.051Z,978.81
2022-10-10T01:02:52.608Z,978.80
2022-10-10T01:03:51.895Z,978.78
2022-10-10T01:04:51.805Z,978.80
2022-10-10T01:05:51.726Z,978.75
2022-10-10T01:06:51.645Z,978.75
2022-10-10T01:07:51.561Z,978.72
2022-10-10T01:08:51.479Z,978.75
2022-10-10T01:09:51.434Z,978.74
2022-10-10T01:10:51.325Z,978.75
2022-10-10T01:11:51.236Z,978.74
2022-10-10T01:12:51.544Z,978.65
2022-10-10T01:13:51.074Z,978.71
2022-10-10T01:14:50.996Z,978.67
2022-10-10T01:15:50.917Z,978.69
2022-10-10T01:16:50.833Z,978.70
2022-10-10T01:17:50.751Z,978.68
2022-10-10T01:18:50.668Z,978.70
2022-10-10T01:19:50.586Z,978.69
2022-10-10T01:20:50.507Z,978.70
2022-10-10T01:21:50.424Z,978.70
2022-10-10T01:22:50.576Z,978.69
2022-10-10T01:23:50.263Z,978.70
2022-10-10T01:24:50.182Z,978.64
2022-10-10T01:25:50.103Z,978.63
2022-10-10T01:26:50.019Z,978.61
2022-10-10T01:27:49.940Z,978.66
2022-10-10T01:28:49.855Z,978.63
2022-10-10T01:29:49.773Z,978.65
2022-10-10T01:30:49.695Z,978.63
2022-10-10T01:31:49.612Z,978.59
2022-10-10T01:32:49.848Z,978.59
2022-10-10T01:35:20.948Z,978.54
2022-10-10T01:36:20.855Z,978.58
2022-10-10T01:38:14.095Z,978.54
2022-10-10T01:39:14.016Z,978.59
2022-10-10T01:40:13.927Z,978.54
2022-10-10T01:41:13.850Z,978.54
2022-10-10T01:42:13.764Z,978.52
2022-10-10T01:43:13.683Z,978.53
2022-10-10T01:44:13.599Z,978.55
2022-10-10T01:45:13.525Z,978.55
2022-10-10T01:46:13.436Z,978.57
2022-10-10T01:47:13.357Z,978.54
2022-10-10T01:48:13.277Z,978.55
2022-10-10T01:49:13.197Z,978.56
2022-10-10T01:50:13.113Z,978.53
2022-10-10T01:51:13.035Z,978.55
2022-10-10T01:52:12.954Z,978.56
2022-10-10T01:53:12.871Z,978.55
2022-10-10T01:54:12.793Z,978.56
2022-10-10T01:55:12.711Z,978.59
2022-10-10T01:56:12.629Z,978.59
2022-10-10T01:57:12.557Z,978.59
2022-10-10T01:58:12.462Z,978.58
2022-10-10T01:59:12.385Z,978.55
2022-10-10T02:00:12.300Z,978.57
2022-10-10T02:01:12.233Z,978.55
2022-10-10T02:02:12.140Z,978.57
2022-10-10T02:03:12.060Z,978.55
2022-10-10T02:04:11.977Z,978.55
2022-10-10T02:05:11.894Z,978.59
2022-10-10T02:06:11.813Z,978.56
2022-10-10T02:07:11.733Z,978.52
2022-10-10T02:08:11.651Z,978.54
2022-10-10T02:09:11.569Z,978.52
2022-10-10T02:10:11.487Z,978.53
2022-10-10T02:11:11.408Z,978.51
2022-10-10T02:12:11.324Z,978.52
2022-10-10T02:13:11.241Z,978.51
2022-10-10T02:14:11.160Z,978.49
2022-10-10T02:15:11.082Z,978.49
2022-10-10T02:16:10.995Z,978.48
2022-10-10T02:17:10.916Z,978.45
2022-10-10T02:18:10.836Z,978.43
2022-10-10T02:19:10.757Z,978.40
2022-10-10T02:20:10.671Z,978.39
2022-10-10T02:21:10.595Z,978.39
2022-10-10T02:22:10.510Z,978.40
2022-10-10T02:23:10.430Z,978.40
2022-10-10T02:24:10.346Z,978.39
2022-10-10T02:25:10.298Z,978.38
2022-10-10T02:26:10.187Z,978.36
2022-10-10T02:27:10.105Z,978.36
2022-10-10T02:28:10.062Z,978.41
2022-10-10T02:29:10.001Z,978.43
2022-10-10T02:30:09.855Z,978.42
2022-10-10T02:31:09.778Z,978.41
2022-10-10T02:32:09.697Z,978.45
2022-10-10T02:33:09.613Z,978.39
2022-10-10T02:34:09.530Z,978.42
2022-10-10T02:35:09.449Z,978.40
2022-10-10T02:36:09.372Z,978.35
2022-10-10T02:37:09.287Z,978.34
2022-10-10T02:38:09.208Z,978.35
2022-10-10T02:39:09.125Z,978.35
2022-10-10T02:40:09.045Z,978.31
2022-10-10T02:41:08.961Z,978.31
2022-10-10T02:42:08.915Z,978.30
2022-10-10T02:43:08.804Z,978.34
2022-10-10T02:44:08.721Z,978.32
2022-10-10T02:45:08.642Z,978.31
2022-10-10T02:46:08.556Z,978.36
2022-10-10T02:47:08.473Z,978.32
2022-10-10T02:48:08.394Z,978.32
2022-10-10T02:49:08.308Z,978.30
2022-10-10T02:50:08.227Z,978.35
2022-10-10T02:51:08.149Z,978.33
2022-10-10T02:52:08.068Z,978.33
2022-10-10T02:53:07.985Z,978.32
2022-10-10T02:54:07.902Z,978.34
2022-10-10T02:55:07.821Z,978.37
2022-10-10T02:56:07.741Z,978.33
2022-10-10T02:57:07.656Z,978.33
2022-10-10T02:58:07.580Z,978.29
2022-10-10T02:59:07.494Z,978.31
2022-10-10T03:00:07.412Z,978.34
2022-10-10T03:01:07.409Z,978.31
2022-10-10T03:02:07.250Z,978.32
2022-10-10T03:03:07.166Z,978.32
2022-10-10T03:04:07.085Z,978.32
2022-10-10T03:05:07.006Z,978.31
2022-10-10T03:06:06.927Z,978.32
2022-10-10T03:07:06.840Z,978.33
2022-10-10T03:08:11.292Z,978.33
2022-10-10T03:09:06.681Z,978.36
2022-10-10T03:10:06.598Z,978.35
2022-10-10T03:11:06.516Z,978.35
2022-10-10T03:12:06.435Z,978.33
2022-10-10T03:13:06.354Z,978.36
2022-10-10T03:14:06.272Z,978.36
2022-10-10T03:15:11.231Z,978.39
2022-10-10T03:16:06.110Z,978.39
2022-10-10T03:17:06.029Z,978.40
2022-10-10T03:18:05.943Z,978.38
2022-10-10T03:19:05.865Z,978.38
2022-10-10T03:20:05.786Z,978.35
2022-10-10T03:21:05.699Z,978.39
2022-10-10T03:22:05.617Z,978.39
2022-10-10T03:23:05.537Z,978.37
2022-10-10T03:24:05.461Z,978.37
2022-10-10T03:25:05.374Z,978.38
2022-10-10T03:26:05.290Z,978.37
2022-10-10T03:27:05.211Z,978.37
2022-10-10T03:28:05.196Z,978.37
2022-10-10T03:29:05.058Z,978.35
2022-10-10T03:30:04.969Z,978.35
2022-10-10T03:31:04.880Z,978.34
2022-10-10T03:32:10.177Z,978.33
2022-10-10T03:33:04.718Z,978.30
2022-10-10T03:34:04.636Z,978.33
2022-10-10T03:35:04.558Z,978.33
2022-10-10T03:36:04.475Z,978.35
2022-10-10T03:37:04.404Z,978.33
2022-10-10T03:38:04.310Z,978.35
2022-10-10T03:39:04.227Z,978.37
2022-10-10T03:40:04.149Z,978.37
2022-10-10T03:41:04.069Z,978.33
2022-10-10T03:42:03.984Z,978.33
2022-10-10T03:43:03.905Z,978.31
2022-10-10T03:44:03.822Z,978.33
2022-10-10T03:45:03.736Z,978.30
2022-10-10T03:46:03.661Z,978.27
2022-10-10T03:47:03.572Z,978.29
2022-10-10T03:48:03.494Z,978.26
2022-10-10T03:49:03.417Z,978.27
2022-10-10T03:50:03.334Z,978.26
2022-10-10T03:51:03.254Z,978.29
2022-10-10T03:52:03.169Z,978.30
2022-10-10T03:53:03.087Z,978.28
2022-10-10T03:54:03.006Z,978.25
2022-10-10T03:55:02.925Z,978.27
2022-10-10T03:56:02.841Z,978.25
2022-10-10T03:57:02.759Z,978.22
2022-10-10T03:58:02.680Z,978.26
2022-10-10T03:59:02.605Z,978.28
2022-10-10T04:00:02.516Z,978.24
2022-10-10T04:01:02.560Z,978.23
2022-10-10T04:02:02.351Z,978.24
2022-10-10T04:03:02.270Z,978.24
2022-10-10T04:04:02.191Z,978.24
2022-10-10T04:05:02.112Z,978.26
2022-10-10T04:06:02.035Z,978.28
2022-10-10T04:07:01.942Z,978.32
2022-10-10T04:08:01.865Z,978.36
2022-10-10T04:09:01.778Z,978.35
2022-10-10T04:10:01.696Z,978.33
2022-10-10T04:11:01.621Z,978.32
2022-10-10T04:12:01.537Z,978.28
2022-10-10T04:13:01.452Z,978.25
2022-10-10T04:14:01.370Z,978.30
2022-10-10T04:15:01.289Z,978.29
2022-10-10T04:16:01.209Z,978.30
2022-10-10T04:17:03.251Z,978.30
2022-10-10T04:18:01.047Z,978.29
2022-10-10T04:19:00.962Z,978.29
2022-10-10T04:20:00.885Z,978.26
2022-10-10T04:21:00.802Z,978.23
2022-10-10T04:22:00.719Z,978.23
2022-10-10T04:23:00.634Z,978.24
2022-10-10T04:24:00.555Z,978.23
2022-10-10T04:25:00.473Z,978.26
2022-10-10T04:26:00.393Z,978.24
2022-10-10T04:27:00.307Z,978.23
2022-10-10T04:28:01.357Z,978.24
2022-10-10T04:29:00.147Z,978.26
2022-10-10T04:30:00.069Z,978.28
2022-10-10T04:30:59.984Z,978.24
2022-10-10T04:31:59.906Z,978.27
2022-10-10T04:32:59.820Z,978.22
2022-10-10T04:33:59.737Z,978.23
2022-10-10T04:34:59.663Z,978.25
2022-10-10T04:35:59.576Z,978.25
2022-10-10T04:36:59.494Z,978.29
2022-10-10T04:37:59.413Z,978.31
2022-10-10T04:38:59.329Z,978.22
2022-10-10T04:39:59.247Z,978.22
2022-10-10T04:40:59.164Z,978.20
2022-10-10T04:41:59.085Z,978.19
2022-10-10T04:42:59.004Z,978.22
2022-10-10T04:43:58.926Z,978.24
2022-10-10T04:44:58.839Z,978.25
2022-10-10T04:45:58.762Z,978.26
2022-10-10T04:46:58.685Z,978.22
2022-10-10T04:47:58.598Z,978.22
2022-10-10T04:48:58.515Z,978.20
2022-10-10T04:49:58.439Z,978.19
2022-10-10T04:50:58.350Z,978.17
2022-10-10T04:51:58.270Z,978.19
2022-10-10T04:52:58.187Z,978.18
2022-10-10T04:53:58.112Z,978.22
2022-10-10T04:54:58.029Z,978.20
2022-10-10T04:55:57.941Z,978.23
2022-10-10T04:56:57.861Z,978.20
2022-10-10T04:57:57.779Z,978.20
2022-10-10T04:58:57.702Z,978.22
2022-10-10T04:59:57.623Z,978.22
2022-10-10T05:00:57.562Z,978.26
2022-10-10T05:02:01.537Z,978.24
2022-10-10T05:02:57.372Z,978.22
2022-10-10T05:03:57.290Z,978.23
2022-10-10T05:04:57.205Z,978.25
2022-10-10T05:05:57.130Z,978.24
2022-10-10T05:06:57.043Z,978.24
2022-10-10T05:07:56.963Z,978.26
2022-10-10T05:08:56.884Z,978.26
2022-10-10T05:09:56.800Z,978.23
2022-10-10T05:10:56.718Z,978.24
2022-10-10T05:11:56.638Z,978.22
2022-10-10T05:12:56.552Z,978.21
2022-10-10T05:13:56.474Z,978.20
2022-10-10T05:14:56.391Z,978.20
2022-10-10T05:15:56.308Z,978.17
2022-10-10T05:16:56.227Z,978.18
2022-10-10T05:17:56.151Z,978.18
2022-10-10T05:18:56.066Z,978.16
2022-10-10T05:19:55.982Z,978.15
2022-10-10T05:20:58.719Z,978.18
2022-10-10T05:21:55.818Z,978.18
2022-10-10T05:22:55.741Z,978.20
2022-10-10T05:23:55.659Z,978.22
2022-10-10T05:24:55.573Z,978.25
2022-10-10T05:25:55.491Z,978.23
2022-10-10T05:26:55.420Z,978.24
2022-10-10T05:27:55.333Z,978.21
2022-10-10T05:28:55.247Z,978.16
2022-10-10T05:29:55.168Z,978.14
2022-10-10T05:30:55.084Z,978.17
2022-10-10T05:31:55.008Z,978.16
2022-10-10T05:32:54.917Z,978.19
2022-10-10T05:33:54.840Z,978.16
2022-10-10T05:34:54.756Z,978.21
2022-10-10T05:35:54.674Z,978.23
2022-10-10T05:36:54.594Z,978.26
2022-10-10T05:37:54.513Z,978.22
2022-10-10T05:38:54.432Z,978.22
2022-10-10T05:39:54.894Z,978.23
2022-10-10T05:40:54.356Z,978.24
2022-10-10T05:41:54.189Z,978.28
2022-10-10T05:42:54.197Z,978.27
2022-10-10T05:43:54.025Z,978.27
2022-10-10T05:44:53.939Z,978.31
2022-10-10T05:45:53.863Z,978.30
2022-10-10T05:46:53.775Z,978.29
2022-10-10T05:47:53.700Z,978.29
2022-10-10T05:48:53.614Z,978.27
2022-10-10T05:49:53.534Z,978.33
2022-10-10T05:50:53.452Z,978.32
2022-10-10T05:51:53.374Z,978.33
2022-10-10T05:52:53.815Z,978.33
2022-10-10T05:53:53.208Z,978.34
2022-10-10T05:54:53.126Z,978.36
2022-10-10T05:55:53.045Z,978.34
2022-10-10T05:56:52.960Z,978.38
2022-10-10T05:57:52.882Z,978.35
2022-10-10T05:58:52.802Z,978.35
2022-10-10T05:59:52.716Z,978.31
2022-10-10T06:00:52.633Z,978.33
2022-10-10T06:01:52.557Z,978.30
2022-10-10T06:02:52.829Z,978.37
2022-10-10T06:03:52.393Z,978.35
2022-10-10T06:04:52.310Z,978.40
2022-10-10T06:05:52.232Z,978.41
2022-10-10T06:06:52.153Z,978.42
2022-10-10T06:08:05.708Z,978.47
2022-10-10T06:08:51.985Z,978.48
2022-10-10T06:09:51.901Z,978.48
2022-10-10T06:10:51.820Z,978.49
2022-10-10T06:11:51.740Z,978.46
2022-10-10T06:12:52.004Z,978.48
2022-10-10T06:13:51.574Z,978.49
2022-10-10T06:14:51.500Z,978.50
2022-10-10T06:15:51.413Z,978.50
2022-10-10T06:16:51.332Z,978.42
2022-10-10T06:17:51.251Z,978.44
2022-10-10T06:18:51.168Z,978.43
2022-10-10T06:19:51.090Z,978.40
2022-10-10T06:20:51.001Z,978.36
2022-10-10T06:21:50.922Z,978.40
2022-10-10T06:22:51.061Z,978.42
2022-10-10T06:23:50.762Z,978.40
2022-10-10T06:24:53.033Z,978.41
2022-10-10T06:25:50.602Z,978.42
2022-10-10T06:26:50.521Z,978.42
2022-10-10T06:27:50.434Z,978.45
2022-10-10T06:28:50.365Z,978.43
2022-10-10T06:29:50.274Z,978.46
2022-10-10T06:30:50.194Z,978.47
2022-10-10T06:31:50.111Z,978.49
2022-10-10T06:32:52.590Z,978.49
2022-10-10T06:33:49.946Z,978.51
2022-10-10T06:34:49.865Z,978.52
2022-10-10T06:35:49.785Z,978.50
2022-10-10T06:36:49.699Z,978.48
2022-10-10T06:37:49.622Z,978.50
2022-10-10T06:38:49.537Z,978.54
2022-10-10T06:39:49.460Z,978.54
2022-10-10T06:40:49.373Z,978.54
2022-10-10T06:41:49.297Z,978.54
2022-10-10T06:42:49.625Z,978.59
2022-10-10T06:43:49.133Z,978.59
2022-10-10T06:44:49.050Z,978.58
2022-10-10T06:45:48.972Z,978.56
2022-10-10T06:46:48.904Z,978.57
2022-10-10T06:47:48.809Z,978.59
2022-10-10T06:48:48.728Z,978.54
2022-10-10T06:49:48.646Z,978.56
2022-10-10T06:50:48.563Z,978.57
2022-10-10T06:51:48.480Z,978.57
2022-10-10T06:52:48.729Z,978.56
2022-10-10T06:53:48.320Z,978.54
2022-10-10T06:54:48.240Z,978.55
2022-10-10T06:55:48.159Z,978.57
2022-10-10T06:56:48.079Z,978.53
2022-10-10T06:57:47.997Z,978.56
2022-10-10T06:58:47.916Z,978.57
2022-10-10T06:59:47.834Z,978.57
2022-10-10T07:00:47.753Z,978.56
2022-10-10T07:01:47.732Z,978.59
2022-10-10T07:02:47.773Z,978.58
2022-10-10T07:03:47.508Z,978.62
2022-10-10T07:04:47.432Z,978.63
2022-10-10T07:05:47.351Z,978.65
2022-10-10T07:06:47.276Z,978.65
2022-10-10T07:07:47.184Z,978.67
2022-10-10T07:08:47.104Z,978.70
2022-10-10T07:09:47.022Z,978.69
2022-10-10T07:10:46.943Z,978.71
2022-10-10T07:11:46.861Z,978.70
2022-10-10T07:12:46.788Z,978.68
2022-10-10T07:13:46.697Z,978.70
2022-10-10T07:14:46.622Z,978.73
2022-10-10T07:15:46.540Z,978.71
2022-10-10T07:16:46.458Z,978.70
2022-10-10T07:17:49.342Z,978.69
2022-10-10T07:18:46.294Z,978.72
2022-10-10T07:19:46.226Z,978.75
2022-10-10T07:20:46.133Z,978.76
2022-10-10T07:21:46.050Z,978.75
2022-10-10T07:22:45.972Z,978.77
2022-10-10T07:23:45.886Z,978.76
2022-10-10T07:24:45.806Z,978.74
2022-10-10T07:25:45.729Z,978.72
2022-10-10T07:26:45.644Z,978.74
2022-10-10T07:27:45.565Z,978.75
2022-10-10T07:28:45.492Z,978.74
2022-10-10T07:29:45.404Z,978.78
2022-10-10T07:30:45.324Z,978.84
2022-10-10T07:31:45.251Z,978.87
2022-10-10T07:32:45.275Z,978.88
2022-10-10T07:33:49.944Z,978.91
2022-10-10T07:34:45.002Z,978.93
2022-10-10T07:35:44.919Z,978.93
2022-10-10T07:36:44.840Z,978.93
2022-10-10T07:37:44.760Z,978.96
2022-10-10T07:38:44.679Z,978.98
2022-10-10T07:39:44.598Z,978.97
2022-10-10T07:40:44.515Z,978.99
2022-10-10T07:41:44.434Z,979.00
2022-10-10T07:42:44.359Z,979.00
2022-10-10T07:43:44.275Z,978.97
2022-10-10T07:44:44.198Z,979.08
2022-10-10T07:45:44.113Z,979.04
2022-10-10T07:46:44.035Z,979.07
2022-10-10T07:47:43.962Z,979.04
2022-10-10T07:48:43.882Z,979.02
2022-10-10T07:49:43.796Z,979.05
2022-10-10T07:50:43.712Z,979.06
2022-10-10T07:51:43.635Z,979.03
2022-10-10T07:52:43.554Z,979.01
2022-10-10T07:53:43.469Z,979.01
2022-10-10T07:54:43.398Z,978.97
2022-10-10T07:55:43.322Z,978.93
2022-10-10T07:56:43.231Z,978.98
2022-10-10T07:57:43.153Z,978.99
2022-10-10T07:58:43.073Z,978.98
2022-10-10T07:59:42.992Z,979.02
2022-10-10T08:00:42.910Z,979.01
2022-10-10T08:01:42.921Z,979.05
2022-10-10T08:02:42.759Z,979.02
2022-10-10T08:03:42.675Z,979.07
2022-10-10T08:04:42.595Z,979.05
2022-10-10T08:05:42.512Z,979.01
2022-10-10T08:06:42.443Z,978.96
2022-10-10T08:07:42.351Z,978.96
2022-10-10T08:08:50.512Z,978.99
2022-10-10T08:09:42.192Z,978.99
2022-10-10T08:10:42.114Z,979.02
2022-10-10T08:11:42.029Z,979.03
2022-10-10T08:12:41.955Z,979.05
2022-10-10T08:13:41.874Z,979.09
2022-10-10T08:14:41.794Z,979.07
2022-10-10T08:15:41.719Z,979.06
2022-10-10T08:16:41.634Z,979.05
2022-10-10T08:17:41.556Z,979.04
2022-10-10T08:18:41.473Z,979.06
2022-10-10T08:19:41.390Z,979.06
2022-10-10T08:20:41.313Z,979.07
2022-10-10T08:21:41.234Z,979.04
2022-10-10T08:22:41.156Z,979.04
2022-10-10T08:23:41.071Z,979.07
2022-10-10T08:24:40.997Z,979.01
2022-10-10T08:25:40.917Z,979.08
2022-10-10T08:26:40.837Z,979.06
2022-10-10T08:27:40.759Z,979.10
2022-10-10T08:28:40.761Z,979.10
2022-10-10T08:29:40.593Z,979.07
2022-10-10T08:30:40.519Z,979.15
2022-10-10T08:31:40.437Z,979.17
2022-10-10T08:32:40.357Z,979.18
2022-10-10T08:33:40.279Z,979.10
2022-10-10T08:34:40.200Z,979.06
2022-10-10T08:35:40.125Z,979.06
2022-10-10T08:36:40.145Z,979.06
2022-10-10T08:37:39.959Z,979.09
2022-10-10T08:38:39.884Z,979.12
2022-10-10T08:39:39.800Z,979.13
2022-10-10T08:40:39.720Z,979.10
2022-10-10T08:41:39.640Z,979.10
2022-10-10T08:42:45.608Z,979.14
2022-10-10T08:43:39.481Z,979.11
2022-10-10T08:44:39.402Z,979.10
2022-10-10T08:45:39.323Z,979.09
2022-10-10T08:46:39.240Z,979.14
2022-10-10T08:47:39.162Z,979.15
2022-10-10T08:48:39.083Z,979.10
2022-10-10T08:49:39.005Z,979.11
2022-10-10T08:50:38.927Z,979.13
2022-10-10T08:51:38.848Z,979.10
2022-10-10T08:52:38.781Z,979.14
2022-10-10T08:53:38.686Z,979.16
2022-10-10T08:54:38.608Z,979.17
2022-10-10T08:55:38.526Z,979.14
2022-10-10T08:56:38.447Z,979.15
2022-10-10T08:57:38.368Z,979.18
2022-10-10T08:58:38.287Z,979.14
2022-10-10T08:59:38.210Z,979.16
2022-10-10T09:00:38.137Z,979.19
2022-10-10T09:02:18.643Z,979.20
2022-10-10T09:02:54.677Z,979.21
2022-10-10T09:03:37.890Z,979.23
2022-10-10T09:04:37.818Z,979.21
2022-10-10T09:05:37.731Z,979.20
2022-10-10T09:06:37.657Z,979.15
2022-10-10T09:07:37.574Z,979.14
2022-10-10T09:08:37.503Z,979.15
2022-10-10T09:09:37.413Z,979.19
2022-10-10T09:10:37.341Z,979.19
2022-10-10T09:11:37.261Z,979.16
2022-10-10T09:12:37.180Z,979.20
2022-10-10T09:13:37.101Z,979.19
2022-10-10T09:14:37.022Z,979.23
2022-10-10T09:15:36.946Z,979.21
2022-10-10T09:16:36.861Z,979.24
2022-10-10T09:17:36.787Z,979.22
2022-10-10T09:18:36.706Z,979.20
2022-10-10T09:19:36.629Z,979.24
2022-10-10T09:20:36.544Z,979.21
2022-10-10T09:21:36.465Z,979.17
2022-10-10T09:22:36.387Z,979.22
2022-10-10T09:23:36.309Z,979.22
2022-10-10T09:24:39.924Z,979.22
2022-10-10T09:25:36.151Z,979.20
2022-10-10T09:26:36.074Z,979.21
2022-10-10T09:27:35.991Z,979.19
2022-10-10T09:28:35.972Z,979.18
2022-10-10T09:29:35.836Z,979.19
2022-10-10T09:30:35.757Z,979.21
2022-10-10T09:31:35.681Z,979.16
2022-10-10T09:32:35.601Z,979.21
2022-10-10T09:33:35.523Z,979.20
2022-10-10T09:34:35.445Z,979.20
2022-10-10T09:35:35.363Z,979.21
2022-10-10T09:36:35.288Z,979.18
2022-10-10T09:37:46.974Z,979.17
2022-10-10T09:38:35.128Z,979.17
2022-10-10T09:39:35.047Z,979.19
2022-10-10T09:40:34.975Z,979.19
2022-10-10T09:41:34.890Z,979.18
2022-10-10T09:42:34.814Z,979.18
2022-10-10T09:43:34.737Z,979.16
2022-10-10T09:44:34.657Z,979.17
2022-10-10T09:45:34.580Z,979.17
2022-10-10T09:46:34.504Z,979.16
2022-10-10T09:47:34.424Z,979.15
2022-10-10T09:48:34.344Z,979.17
2022-10-10T09:49:34.266Z,979.16
2022-10-10T09:50:34.189Z,979.19
2022-10-10T09:51:34.111Z,979.18
2022-10-10T09:52:34.028Z,979.16
2022-10-10T09:53:33.955Z,979.17
2022-10-10T09:54:33.874Z,979.18
2022-10-10T09:55:33.806Z,979.17
2022-10-10T09:56:33.823Z,979.20
2022-10-10T09:57:33.642Z,979.20
2022-10-10T09:58:33.566Z,979.23
2022-10-10T09:59:33.480Z,979.24
2022-10-10T10:00:33.404Z,979.20
2022-10-10T10:01:33.398Z,979.21
2022-10-10T10:02:33.253Z,979.22
2022-10-10T10:03:33.169Z,979.26
2022-10-10T10:04:33.097Z,979.26
2022-10-10T10:05:33.009Z,979.28
2022-10-10T10:06:32.939Z,979.33
2022-10-10T10:07:32.884Z,979.34
2022-10-10T10:08:32.791Z,979.31
2022-10-10T10:09:32.698Z,979.31
2022-10-10T10:10:32.619Z,979.29
2022-10-10T10:11:32.548Z,979.30
2022-10-10T10:12:32.464Z,979.33
2022-10-10T10:13:32.392Z,979.31
2022-10-10T10:14:32.308Z,979.31
2022-10-10T10:15:32.233Z,979.33
2022-10-10T10:16:32.153Z,979.30
2022-10-10T10:17:32.073Z,979.29
2022-10-10T10:18:31.996Z,979.28
2022-10-10T10:19:31.914Z,979.30
2022-10-10T10:20:31.838Z,979.29
2022-10-10T10:21:31.758Z,979.27
2022-10-10T10:22:31.684Z,979.31
2022-10-10T10:23:31.605Z,979.28
2022-10-10T10:24:31.525Z,979.28
2022-10-10T10:25:31.840Z,979.33
2022-10-10T10:26:31.372Z,979.31
2022-10-10T10:27:31.295Z,979.36
2022-10-10T10:28:31.281Z,979.37
2022-10-10T10:29:31.138Z,979.41
2022-10-10T10:30:31.061Z,979.40
2022-10-10T10:31:31.005Z,979.44
2022-10-10T10:32:30.902Z,979.44
2022-10-10T10:33:30.822Z,979.42
2022-10-10T10:34:30.748Z,979.43
2022-10-10T10:35:30.669Z,979.37
2022-10-10T10:36:30.591Z,979.36
2022-10-10T10:37:30.514Z,979.35
2022-10-10T10:38:30.436Z,979.37
2022-10-10T10:39:30.358Z,979.36
2022-10-10T10:40:30.278Z,979.35
2022-10-10T10:41:30.198Z,979.37
2022-10-10T10:42:30.122Z,979.34
2022-10-10T10:43:30.048Z,979.38
2022-10-10T10:44:29.969Z,979.37
2022-10-10T10:45:29.889Z,979.36
2022-10-10T10:46:29.813Z,979.36
2022-10-10T10:47:29.811Z,979.37
2022-10-10T10:48:29.659Z,979.39
2022-10-10T10:49:29.582Z,979.33
2022-10-10T10:50:29.505Z,979.35
2022-10-10T10:51:29.423Z,979.37
2022-10-10T10:52:29.350Z,979.40
2022-10-10T10:53:29.270Z,979.41
2022-10-10T10:54:29.192Z,979.43
2022-10-10T10:55:32.873Z,979.41
2022-10-10T10:56:29.110Z,979.38
2022-10-10T10:57:36.950Z,979.41
2022-10-10T11:00:20.341Z,979.41
2022-10-10T11:01:28.002Z,979.37
2022-10-10T11:01:51.833Z,979.36
2022-10-10T11:02:55.986Z,979.41
2022-10-10T11:05:19.872Z,979.34
2022-10-10T11:05:23.228Z,979.34
2022-10-10T11:05:35.304Z,979.31
2022-10-10T11:06:28.339Z,979.30
2022-10-10T11:07:28.268Z,979.27
2022-10-10T11:08:28.176Z,979.31
2022-10-10T11:10:27.958Z,979.28
2022-10-10T11:11:27.883Z,979.27
2022-10-10T11:12:27.803Z,979.23
2022-10-10T11:13:27.727Z,979.25
2022-10-10T11:14:27.645Z,979.26
2022-10-10T11:15:37.603Z,979.28
2022-10-10T11:17:27.419Z,979.24
2022-10-10T11:18:27.338Z,979.24
2022-10-10T11:19:27.262Z,979.24
2022-10-10T11:20:27.184Z,979.21
2022-10-10T11:21:27.107Z,979.26
2022-10-10T11:22:27.030Z,979.27
2022-10-10T11:23:26.966Z,979.30
2022-10-10T11:24:26.874Z,979.25
2022-10-10T11:25:26.799Z,979.24
2022-10-10T11:26:26.718Z,979.24
2022-10-10T11:27:26.645Z,979.24
2022-10-10T11:28:26.637Z,979.22
2022-10-10T11:29:26.487Z,979.20
2022-10-10T11:30:26.413Z,979.21
2022-10-10T11:31:26.338Z,979.25
2022-10-10T11:32:26.268Z,979.24
2022-10-10T11:33:26.183Z,979.27
2022-10-10T11:34:26.107Z,979.24
2022-10-10T11:35:26.029Z,979.23
2022-10-10T11:36:25.952Z,979.28
2022-10-10T11:37:25.876Z,979.28
2022-10-10T11:38:25.795Z,979.23
2022-10-10T11:39:25.722Z,979.22
2022-10-10T11:40:25.642Z,979.22
2022-10-10T11:41:25.567Z,979.15
2022-10-10T11:42:25.490Z,979.15
2022-10-10T11:43:25.414Z,979.16
2022-10-10T11:44:25.335Z,979.12
2022-10-10T11:45:25.256Z,979.11
2022-10-10T11:46:25.181Z,979.12
2022-10-10T11:47:25.104Z,979.11
2022-10-10T11:48:25.030Z,979.12
2022-10-10T11:49:24.951Z,979.13
2022-10-10T11:50:24.870Z,979.11
2022-10-10T11:51:24.797Z,979.12
2022-10-10T11:52:39.187Z,979.13
2022-10-10T11:53:24.642Z,979.06
2022-10-10T11:54:24.563Z,979.09
2022-10-10T11:55:24.491Z,979.10
2022-10-10T11:56:24.413Z,979.06
2022-10-10T11:57:24.337Z,979.03
2022-10-10T11:58:24.260Z,978.99
2022-10-10T11:59:24.184Z,979.02
2022-10-10T12:00:24.109Z,979.00
2022-10-10T12:01:24.027Z,979.01
2022-10-10T12:02:27.131Z,978.95
2022-10-10T12:03:23.879Z,978.95
2022-10-10T12:04:23.803Z,978.95
2022-10-10T12:05:23.746Z,978.95
2022-10-10T12:06:23.651Z,978.91
2022-10-10T12:07:23.571Z,978.96
2022-10-10T12:08:23.498Z,978.92
2022-10-10T12:09:23.417Z,978.93
2022-10-10T12:10:23.351Z,978.88
2022-10-10T12:11:23.263Z,978.86
2022-10-10T12:12:23.186Z,978.90
2022-10-10T12:13:23.110Z,978.91
2022-10-10T12:14:23.031Z,978.87
2022-10-10T12:15:22.958Z,978.90
2022-10-10T12:16:25.886Z,978.94
2022-10-10T12:17:22.803Z,978.94
2022-10-10T12:18:22.725Z,978.94
2022-10-10T12:19:22.653Z,978.95
2022-10-10T12:20:22.578Z,978.93
2022-10-10T12:21:22.495Z,978.93
2022-10-10T12:22:22.423Z,978.92
2022-10-10T12:23:22.344Z,978.98
2022-10-10T12:24:22.266Z,978.94
2022-10-10T12:25:22.198Z,978.91
2022-10-10T12:26:22.125Z,978.89
2022-10-10T12:27:22.038Z,978.87
2022-10-10T12:28:22.071Z,978.86
2022-10-10T12:29:21.884Z,978.82
2022-10-10T12:30:21.809Z,978.82
2022-10-10T12:31:21.733Z,978.85
2022-10-10T12:32:21.653Z,978.88
2022-10-10T12:33:21.584Z,978.86